sensor_id;sensor_type;location;lat;lon;timestamp;temperature;humidity
2391;DHT22;22957;50.824;4.360;2023-09-19T00:00:59;17.40;99.90
2391;DHT22;22957;50.824;4.360;2023-09-19T00:03:25;17.50;99.90
2391;DHT22;22957;50.824;4.360;2023-09-19T00:05:53;17.40;99.90
2391;DHT22;22957;50.824;4.360;2023-09-19T00:08:20;17.40;99.90
2391;DHT22;22957;50.824;4.360;2023-09-19T00:10:50;17.60;99.90
2391;DHT22;22957;50.824;4.360;2023-09-19T00:13:15;17.70;99.90
2391;DHT22;22957;50.824;4.360;2023-09-19T00:15:42;17.40;99.90
2391;DHT22;22957;50.824;4.360;2023-09-19T00:18:08;17.40;99.90
2391;DHT22;22957;50.824;4.360;2023-09-19T00:20:37;17.30;99.90
2391;DHT22;22957;50.824;4.360;2023-09-19T00:23:04;17.30;99.90
2391;DHT22;22957;50.824;4.360;2023-09-19T00:25:30;17.00;99.90
2391;DHT22;22957;50.824;4.360;2023-09-19T00:27:57;16.90;99.90
2391;DHT22;22957;50.824;4.360;2023-09-19T00:30:23;17.00;99.90
2391;DHT22;22957;50.824;4.360;2023-09-19T00:32:50;17.10;99.90
2391;DHT22;22957;50.824;4.360;2023-09-19T00:35:20;17.10;99.90
2391;DHT22;22957;50.824;4.360;2023-09-19T00:37:45;17.30;99.90
2391;DHT22;22957;50.824;4.360;2023-09-19T00:40:11;17.30;99.90
2391;DHT22;22957;50.824;4.360;2023-09-19T00:42:47;16.70;99.90
2391;DHT22;22957;50.824;4.360;2023-09-19T00:45:14;17.20;99.90
2391;DHT22;22957;50.824;4.360;2023-09-19T00:47:44;17.30;99.90
2391;DHT22;22957;50.824;4.360;2023-09-19T00:50:11;17.10;99.90
2391;DHT22;22957;50.824;4.360;2023-09-19T00:52:39;17.10;99.90
2391;DHT22;22957;50.824;4.360;2023-09-19T00:55:06;17.10;99.90
2391;DHT22;22957;50.824;4.360;2023-09-19T00:57:32;17.00;99.90
2391;DHT22;22957;50.824;4.360;2023-09-19T00:59:58;17.20;99.90
2391;DHT22;22957;50.824;4.360;2023-09-19T01:02:24;17.10;99.90
2391;DHT22;22957;50.824;4.360;2023-09-19T01:04:52;16.90;99.90
2391;DHT22;22957;50.824;4.360;2023-09-19T01:07:18;17.10;99.90
2391;DHT22;22957;50.824;4.360;2023-09-19T01:09:44;17.10;99.90
2391;DHT22;22957;50.824;4.360;2023-09-19T01:12:09;17.00;99.90
2391;DHT22;22957;50.824;4.360;2023-09-19T01:14:49;17.20;99.90
2391;DHT22;22957;50.824;4.360;2023-09-19T01:17:26;17.00;99.90
2391;DHT22;22957;50.824;4.360;2023-09-19T01:22:21;17.10;99.90
2391;DHT22;22957;50.824;4.360;2023-09-19T01:29:48;16.90;99.90
2391;DHT22;22957;50.824;4.360;2023-09-19T01:32:17;16.90;99.90
2391;DHT22;22957;50.824;4.360;2023-09-19T01:34:53;17.20;99.90
2391;DHT22;22957;50.824;4.360;2023-09-19T01:37:21;16.90;99.90
2391;DHT22;22957;50.824;4.360;2023-09-19T01:40:12;17.20;99.90
2391;DHT22;22957;50.824;4.360;2023-09-19T01:47:56;17.00;99.90
2391;DHT22;22957;50.824;4.360;2023-09-19T01:55:48;16.90;99.90
2391;DHT22;22957;50.824;4.360;2023-09-19T02:00:44;17.40;99.90
2391;DHT22;22957;50.824;4.360;2023-09-19T02:03:13;17.10;99.90
2391;DHT22;22957;50.824;4.360;2023-09-19T02:05:39;17.10;99.90
2391;DHT22;22957;50.824;4.360;2023-09-19T02:08:04;17.00;99.90
2391;DHT22;22957;50.824;4.360;2023-09-19T02:10:30;17.10;99.90
2391;DHT22;22957;50.824;4.360;2023-09-19T02:12:56;17.10;99.90
2391;DHT22;22957;50.824;4.360;2023-09-19T02:15:22;17.30;99.90
2391;DHT22;22957;50.824;4.360;2023-09-19T02:17:47;17.20;99.90
2391;DHT22;22957;50.824;4.360;2023-09-19T02:20:13;17.10;99.90
2391;DHT22;22957;50.824;4.360;2023-09-19T02:22:43;17.30;99.90
2391;DHT22;22957;50.824;4.360;2023-09-19T02:25:09;17.40;99.90
2391;DHT22;22957;50.824;4.360;2023-09-19T02:27:35;17.40;99.90
2391;DHT22;22957;50.824;4.360;2023-09-19T02:30:01;17.20;99.90
2391;DHT22;22957;50.824;4.360;2023-09-19T02:32:29;16.90;99.90
2391;DHT22;22957;50.824;4.360;2023-09-19T02:34:56;16.90;99.90
2391;DHT22;22957;50.824;4.360;2023-09-19T02:37:23;16.90;99.90
2391;DHT22;22957;50.824;4.360;2023-09-19T02:39:48;17.20;99.90
2391;DHT22;22957;50.824;4.360;2023-09-19T02:42:14;17.00;99.90
2391;DHT22;22957;50.824;4.360;2023-09-19T02:44:40;17.10;99.90
2391;DHT22;22957;50.824;4.360;2023-09-19T02:47:05;17.00;99.90
2391;DHT22;22957;50.824;4.360;2023-09-19T02:49:31;16.70;99.90
2391;DHT22;22957;50.824;4.360;2023-09-19T02:51:56;16.90;99.90
2391;DHT22;22957;50.824;4.360;2023-09-19T02:54:24;17.00;99.90
2391;DHT22;22957;50.824;4.360;2023-09-19T02:56:49;17.20;99.90
2391;DHT22;22957;50.824;4.360;2023-09-19T02:59:15;17.10;99.90
2391;DHT22;22957;50.824;4.360;2023-09-19T03:01:43;17.00;99.90
2391;DHT22;22957;50.824;4.360;2023-09-19T03:04:08;16.60;99.90
2391;DHT22;22957;50.824;4.360;2023-09-19T03:06:36;17.00;99.90
2391;DHT22;22957;50.824;4.360;2023-09-19T03:09:02;16.90;99.90
2391;DHT22;22957;50.824;4.360;2023-09-19T03:11:31;16.40;99.90
2391;DHT22;22957;50.824;4.360;2023-09-19T03:13:57;17.00;99.90
2391;DHT22;22957;50.824;4.360;2023-09-19T03:16:23;17.10;99.90
2391;DHT22;22957;50.824;4.360;2023-09-19T03:18:50;17.10;99.90
2391;DHT22;22957;50.824;4.360;2023-09-19T03:21:16;17.30;99.90
2391;DHT22;22957;50.824;4.360;2023-09-19T03:23:42;17.30;99.90
2391;DHT22;22957;50.824;4.360;2023-09-19T03:26:11;16.70;99.90
2391;DHT22;22957;50.824;4.360;2023-09-19T03:28:38;17.30;99.90
2391;DHT22;22957;50.824;4.360;2023-09-19T03:31:04;17.00;99.90
2391;DHT22;22957;50.824;4.360;2023-09-19T03:33:30;17.10;99.90
2391;DHT22;22957;50.824;4.360;2023-09-19T03:35:59;16.70;99.90
2391;DHT22;22957;50.824;4.360;2023-09-19T03:38:26;16.90;99.90
2391;DHT22;22957;50.824;4.360;2023-09-19T03:40:52;16.80;99.90
2391;DHT22;22957;50.824;4.360;2023-09-19T03:43:17;16.90;99.90
2391;DHT22;22957;50.824;4.360;2023-09-19T03:45:44;16.70;99.90
2391;DHT22;22957;50.824;4.360;2023-09-19T03:48:12;16.50;99.90
2391;DHT22;22957;50.824;4.360;2023-09-19T03:50:38;16.50;99.90
2391;DHT22;22957;50.824;4.360;2023-09-19T03:53:03;16.60;99.90
2391;DHT22;22957;50.824;4.360;2023-09-19T03:55:29;16.70;99.90
2391;DHT22;22957;50.824;4.360;2023-09-19T03:57:57;16.90;99.90
2391;DHT22;22957;50.824;4.360;2023-09-19T04:00:23;16.60;99.90
2391;DHT22;22957;50.824;4.360;2023-09-19T04:02:51;16.70;99.90
2391;DHT22;22957;50.824;4.360;2023-09-19T04:05:17;16.60;99.90
2391;DHT22;22957;50.824;4.360;2023-09-19T04:07:43;16.60;99.90
2391;DHT22;22957;50.824;4.360;2023-09-19T04:10:08;16.70;99.90
2391;DHT22;22957;50.824;4.360;2023-09-19T04:12:36;16.50;99.90
2391;DHT22;22957;50.824;4.360;2023-09-19T04:15:02;16.50;99.90
2391;DHT22;22957;50.824;4.360;2023-09-19T04:17:28;16.80;99.90
2391;DHT22;22957;50.824;4.360;2023-09-19T04:19:54;16.70;99.90
2391;DHT22;22957;50.824;4.360;2023-09-19T04:22:19;16.40;99.90
2391;DHT22;22957;50.824;4.360;2023-09-19T04:24:45;16.70;99.90
2391;DHT22;22957;50.824;4.360;2023-09-19T04:27:10;16.70;99.90
2391;DHT22;22957;50.824;4.360;2023-09-19T04:29:37;16.70;99.90
2391;DHT22;22957;50.824;4.360;2023-09-19T04:32:04;16.80;99.90
2391;DHT22;22957;50.824;4.360;2023-09-19T04:34:31;16.60;99.90
2391;DHT22;22957;50.824;4.360;2023-09-19T04:36:57;16.70;99.90
2391;DHT22;22957;50.824;4.360;2023-09-19T04:39:24;16.90;99.90
2391;DHT22;22957;50.824;4.360;2023-09-19T04:41:51;16.60;99.90
2391;DHT22;22957;50.824;4.360;2023-09-19T04:44:16;17.00;99.90
2391;DHT22;22957;50.824;4.360;2023-09-19T04:46:43;16.40;99.90
2391;DHT22;22957;50.824;4.360;2023-09-19T04:49:09;16.60;99.90
2391;DHT22;22957;50.824;4.360;2023-09-19T04:51:34;16.70;99.90
2391;DHT22;22957;50.824;4.360;2023-09-19T04:54:01;16.60;99.90
2391;DHT22;22957;50.824;4.360;2023-09-19T04:56:28;16.50;99.90
2391;DHT22;22957;50.824;4.360;2023-09-19T04:58:54;16.50;99.90
2391;DHT22;22957;50.824;4.360;2023-09-19T05:01:19;16.70;99.90
2391;DHT22;22957;50.824;4.360;2023-09-19T05:03:48;16.90;99.90
2391;DHT22;22957;50.824;4.360;2023-09-19T05:06:18;17.20;99.90
2391;DHT22;22957;50.824;4.360;2023-09-19T05:08:43;16.60;99.90
2391;DHT22;22957;50.824;4.360;2023-09-19T05:11:09;16.30;99.90
2391;DHT22;22957;50.824;4.360;2023-09-19T05:13:34;16.30;99.90
2391;DHT22;22957;50.824;4.360;2023-09-19T05:16:00;16.30;99.90
2391;DHT22;22957;50.824;4.360;2023-09-19T05:18:28;16.50;99.90
2391;DHT22;22957;50.824;4.360;2023-09-19T05:20:53;16.60;99.90
2391;DHT22;22957;50.824;4.360;2023-09-19T05:23:20;16.60;99.90
2391;DHT22;22957;50.824;4.360;2023-09-19T05:25:46;16.30;99.90
2391;DHT22;22957;50.824;4.360;2023-09-19T05:28:11;16.70;99.90
2391;DHT22;22957;50.824;4.360;2023-09-19T05:30:40;16.70;99.90
2391;DHT22;22957;50.824;4.360;2023-09-19T05:33:08;16.50;99.90
2391;DHT22;22957;50.824;4.360;2023-09-19T05:35:34;16.30;99.90
2391;DHT22;22957;50.824;4.360;2023-09-19T05:38:02;16.60;99.90
2391;DHT22;22957;50.824;4.360;2023-09-19T05:40:27;16.60;99.90
2391;DHT22;22957;50.824;4.360;2023-09-19T05:42:53;16.60;99.90
2391;DHT22;22957;50.824;4.360;2023-09-19T05:45:19;16.80;99.90
2391;DHT22;22957;50.824;4.360;2023-09-19T05:47:48;16.90;99.90
2391;DHT22;22957;50.824;4.360;2023-09-19T05:50:13;16.60;99.90
2391;DHT22;22957;50.824;4.360;2023-09-19T05:52:40;16.50;99.90
2391;DHT22;22957;50.824;4.360;2023-09-19T05:55:06;16.80;99.90
2391;DHT22;22957;50.824;4.360;2023-09-19T05:57:35;16.90;99.90
2391;DHT22;22957;50.824;4.360;2023-09-19T06:00:01;17.00;99.90
2391;DHT22;22957;50.824;4.360;2023-09-19T06:02:27;17.20;99.90
2391;DHT22;22957;50.824;4.360;2023-09-19T06:04:54;17.20;99.90
2391;DHT22;22957;50.824;4.360;2023-09-19T06:07:21;17.00;99.90
2391;DHT22;22957;50.824;4.360;2023-09-19T06:09:47;17.10;99.90
2391;DHT22;22957;50.824;4.360;2023-09-19T06:12:12;16.70;99.90
2391;DHT22;22957;50.824;4.360;2023-09-19T06:14:43;17.30;99.90
2391;DHT22;22957;50.824;4.360;2023-09-19T06:17:08;17.30;99.90
2391;DHT22;22957;50.824;4.360;2023-09-19T06:19:34;17.30;99.90
2391;DHT22;22957;50.824;4.360;2023-09-19T06:21:59;16.90;99.90
2391;DHT22;22957;50.824;4.360;2023-09-19T06:24:25;16.90;99.90
2391;DHT22;22957;50.824;4.360;2023-09-19T06:26:51;17.30;99.90
2391;DHT22;22957;50.824;4.360;2023-09-19T06:29:17;17.30;99.90
2391;DHT22;22957;50.824;4.360;2023-09-19T06:31:43;17.60;99.90
2391;DHT22;22957;50.824;4.360;2023-09-19T06:34:10;17.80;99.90
2391;DHT22;22957;50.824;4.360;2023-09-19T06:36:35;17.80;99.90
2391;DHT22;22957;50.824;4.360;2023-09-19T06:39:01;17.70;99.90
2391;DHT22;22957;50.824;4.360;2023-09-19T06:41:29;17.70;99.90
2391;DHT22;22957;50.824;4.360;2023-09-19T06:43:55;17.70;99.90
2391;DHT22;22957;50.824;4.360;2023-09-19T06:46:20;17.80;99.90
2391;DHT22;22957;50.824;4.360;2023-09-19T06:48:46;17.70;99.90
2391;DHT22;22957;50.824;4.360;2023-09-19T06:51:13;17.50;99.90
2391;DHT22;22957;50.824;4.360;2023-09-19T06:53:41;17.40;99.90
2391;DHT22;22957;50.824;4.360;2023-09-19T06:56:07;17.70;99.90
2391;DHT22;22957;50.824;4.360;2023-09-19T06:58:32;17.60;99.90
2391;DHT22;22957;50.824;4.360;2023-09-19T07:00:58;18.10;99.90
2391;DHT22;22957;50.824;4.360;2023-09-19T07:03:23;18.30;99.90
2391;DHT22;22957;50.824;4.360;2023-09-19T07:05:51;18.50;99.90
2391;DHT22;22957;50.824;4.360;2023-09-19T07:08:18;18.20;99.90
2391;DHT22;22957;50.824;4.360;2023-09-19T07:10:45;18.40;99.90
2391;DHT22;22957;50.824;4.360;2023-09-19T07:13:14;18.70;99.90
2391;DHT22;22957;50.824;4.360;2023-09-19T07:15:42;18.80;99.90
2391;DHT22;22957;50.824;4.360;2023-09-19T07:18:12;18.70;99.90
2391;DHT22;22957;50.824;4.360;2023-09-19T07:20:38;19.10;99.90
2391;DHT22;22957;50.824;4.360;2023-09-19T07:23:03;19.30;99.90
2391;DHT22;22957;50.824;4.360;2023-09-19T07:25:29;19.30;99.90
2391;DHT22;22957;50.824;4.360;2023-09-19T07:27:55;19.80;99.90
2391;DHT22;22957;50.824;4.360;2023-09-19T07:30:20;20.40;99.90
2391;DHT22;22957;50.824;4.360;2023-09-19T07:32:46;21.00;99.90
2391;DHT22;22957;50.824;4.360;2023-09-19T07:35:12;20.90;99.90
2391;DHT22;22957;50.824;4.360;2023-09-19T07:37:37;20.90;99.90
2391;DHT22;22957;50.824;4.360;2023-09-19T07:40:03;21.30;99.90
2391;DHT22;22957;50.824;4.360;2023-09-19T07:42:35;20.90;99.90
2391;DHT22;22957;50.824;4.360;2023-09-19T07:45:02;20.80;99.90
2391;DHT22;22957;50.824;4.360;2023-09-19T07:47:28;20.10;99.90
2391;DHT22;22957;50.824;4.360;2023-09-19T07:49:55;20.80;99.90
2391;DHT22;22957;50.824;4.360;2023-09-19T07:52:21;20.40;99.90
2391;DHT22;22957;50.824;4.360;2023-09-19T07:54:47;20.10;99.90
2391;DHT22;22957;50.824;4.360;2023-09-19T07:57:15;20.20;99.90
2391;DHT22;22957;50.824;4.360;2023-09-19T07:59:41;20.90;99.90
2391;DHT22;22957;50.824;4.360;2023-09-19T08:02:10;21.20;99.90
2391;DHT22;22957;50.824;4.360;2023-09-19T08:04:44;21.40;99.90
2391;DHT22;22957;50.824;4.360;2023-09-19T08:07:12;21.30;99.90
2391;DHT22;22957;50.824;4.360;2023-09-19T08:09:38;20.90;99.90
2391;DHT22;22957;50.824;4.360;2023-09-19T08:12:04;21.40;99.90
2391;DHT22;22957;50.824;4.360;2023-09-19T08:14:30;21.50;99.90
2391;DHT22;22957;50.824;4.360;2023-09-19T08:16:58;21.70;99.90
2391;DHT22;22957;50.824;4.360;2023-09-19T08:19:24;21.20;99.90
2391;DHT22;22957;50.824;4.360;2023-09-19T08:21:56;21.60;99.90
2391;DHT22;22957;50.824;4.360;2023-09-19T08:24:28;21.90;99.90
2391;DHT22;22957;50.824;4.360;2023-09-19T08:26:54;21.60;99.90
2391;DHT22;22957;50.824;4.360;2023-09-19T08:29:20;21.70;99.90
2391;DHT22;22957;50.824;4.360;2023-09-19T08:31:45;21.20;99.90
2391;DHT22;22957;50.824;4.360;2023-09-19T08:34:13;22.00;99.90
2391;DHT22;22957;50.824;4.360;2023-09-19T08:36:39;22.30;99.90
2391;DHT22;22957;50.824;4.360;2023-09-19T08:39:06;22.70;99.90
2391;DHT22;22957;50.824;4.360;2023-09-19T08:41:32;23.60;99.90
2391;DHT22;22957;50.824;4.360;2023-09-19T08:44:00;23.20;99.90
2391;DHT22;22957;50.824;4.360;2023-09-19T08:46:30;23.80;99.90
2391;DHT22;22957;50.824;4.360;2023-09-19T08:49:41;23.60;99.90
2391;DHT22;22957;50.824;4.360;2023-09-19T08:51:47;23.30;99.90
2391;DHT22;22957;50.824;4.360;2023-09-19T08:54:22;22.40;99.90
2391;DHT22;22957;50.824;4.360;2023-09-19T08:56:51;22.20;99.90
2391;DHT22;22957;50.824;4.360;2023-09-19T08:59:20;23.20;99.90
2391;DHT22;22957;50.824;4.360;2023-09-19T09:01:49;23.50;99.90
2391;DHT22;22957;50.824;4.360;2023-09-19T09:04:18;23.60;99.90
2391;DHT22;22957;50.824;4.360;2023-09-19T09:06:44;23.80;99.90
2391;DHT22;22957;50.824;4.360;2023-09-19T09:09:14;23.50;99.90
2391;DHT22;22957;50.824;4.360;2023-09-19T09:11:40;23.60;99.90
2391;DHT22;22957;50.824;4.360;2023-09-19T09:14:06;23.20;99.90
2391;DHT22;22957;50.824;4.360;2023-09-19T09:16:32;23.80;99.90
2391;DHT22;22957;50.824;4.360;2023-09-19T09:18:58;23.30;99.90
2391;DHT22;22957;50.824;4.360;2023-09-19T09:21:24;22.30;99.90
2391;DHT22;22957;50.824;4.360;2023-09-19T09:23:50;22.50;99.90
2391;DHT22;22957;50.824;4.360;2023-09-19T09:26:17;22.60;99.90
2391;DHT22;22957;50.824;4.360;2023-09-19T09:28:49;22.70;99.90
2391;DHT22;22957;50.824;4.360;2023-09-19T09:31:24;22.50;99.90
2391;DHT22;22957;50.824;4.360;2023-09-19T09:33:56;21.80;99.90
2391;DHT22;22957;50.824;4.360;2023-09-19T09:36:35;21.50;99.90
2391;DHT22;22957;50.824;4.360;2023-09-19T09:39:02;22.00;99.90
2391;DHT22;22957;50.824;4.360;2023-09-19T09:41:41;22.40;99.90
2391;DHT22;22957;50.824;4.360;2023-09-19T09:44:17;22.50;99.90
2391;DHT22;22957;50.824;4.360;2023-09-19T09:46:44;22.40;99.90
2391;DHT22;22957;50.824;4.360;2023-09-19T09:49:25;22.60;99.90
2391;DHT22;22957;50.824;4.360;2023-09-19T09:52:01;22.10;99.90
2391;DHT22;22957;50.824;4.360;2023-09-19T09:54:32;22.60;99.90
2391;DHT22;22957;50.824;4.360;2023-09-19T09:59:43;21.90;99.90
2391;DHT22;22957;50.824;4.360;2023-09-19T10:02:14;22.00;99.90
2391;DHT22;22957;50.824;4.360;2023-09-19T10:04:45;22.20;99.90
2391;DHT22;22957;50.824;4.360;2023-09-19T10:07:25;22.10;99.90
2391;DHT22;22957;50.824;4.360;2023-09-19T10:09:53;21.80;99.90
2391;DHT22;22957;50.824;4.360;2023-09-19T10:12:22;22.40;99.90
2391;DHT22;22957;50.824;4.360;2023-09-19T10:14:50;22.20;99.90
2391;DHT22;22957;50.824;4.360;2023-09-19T10:17:16;22.50;99.90
2391;DHT22;22957;50.824;4.360;2023-09-19T10:22:17;24.10;99.90
2391;DHT22;22957;50.824;4.360;2023-09-19T10:24:46;24.50;99.90
2391;DHT22;22957;50.824;4.360;2023-09-19T10:27:12;24.00;99.90
2391;DHT22;22957;50.824;4.360;2023-09-19T10:29:39;23.80;99.90
2391;DHT22;22957;50.824;4.360;2023-09-19T10:32:05;23.80;99.90
2391;DHT22;22957;50.824;4.360;2023-09-19T10:34:37;24.40;99.90
2391;DHT22;22957;50.824;4.360;2023-09-19T10:37:06;24.10;99.90
2391;DHT22;22957;50.824;4.360;2023-09-19T10:39:34;24.10;99.90
2391;DHT22;22957;50.824;4.360;2023-09-19T10:42:01;24.60;99.90
2391;DHT22;22957;50.824;4.360;2023-09-19T10:44:32;24.30;99.90
2391;DHT22;22957;50.824;4.360;2023-09-19T10:46:57;25.10;99.90
2391;DHT22;22957;50.824;4.360;2023-09-19T10:49:23;24.10;99.90
2391;DHT22;22957;50.824;4.360;2023-09-19T10:51:50;23.30;99.90
2391;DHT22;22957;50.824;4.360;2023-09-19T10:54:20;24.00;99.90
2391;DHT22;22957;50.824;4.360;2023-09-19T10:56:49;23.80;99.90
2391;DHT22;22957;50.824;4.360;2023-09-19T10:59:17;24.50;99.90
2391;DHT22;22957;50.824;4.360;2023-09-19T11:04:28;24.90;99.90
2391;DHT22;22957;50.824;4.360;2023-09-19T11:07:00;24.40;99.90
2391;DHT22;22957;50.824;4.360;2023-09-19T11:09:40;24.50;99.90
2391;DHT22;22957;50.824;4.360;2023-09-19T11:12:07;24.30;99.90
2391;DHT22;22957;50.824;4.360;2023-09-19T11:14:37;24.70;99.90
2391;DHT22;22957;50.824;4.360;2023-09-19T11:22:25;24.70;99.90
2391;DHT22;22957;50.824;4.360;2023-09-19T11:24:51;24.70;99.90
2391;DHT22;22957;50.824;4.360;2023-09-19T11:27:17;24.60;99.90
2391;DHT22;22957;50.824;4.360;2023-09-19T11:29:43;24.40;99.90
2391;DHT22;22957;50.824;4.360;2023-09-19T11:32:08;24.40;99.90
2391;DHT22;22957;50.824;4.360;2023-09-19T11:34:44;23.90;99.90
2391;DHT22;22957;50.824;4.360;2023-09-19T11:40:10;24.00;99.90
2391;DHT22;22957;50.824;4.360;2023-09-19T11:42:45;23.40;99.90
2391;DHT22;22957;50.824;4.360;2023-09-19T11:47:59;22.90;99.90
2391;DHT22;22957;50.824;4.360;2023-09-19T11:50:25;23.30;99.90
2391;DHT22;22957;50.824;4.360;2023-09-19T11:52:51;23.50;99.90
2391;DHT22;22957;50.824;4.360;2023-09-19T11:55:19;23.00;99.90
2391;DHT22;22957;50.824;4.360;2023-09-19T11:57:47;22.90;99.90
2391;DHT22;22957;50.824;4.360;2023-09-19T12:00:19;22.70;99.90
2391;DHT22;22957;50.824;4.360;2023-09-19T12:02:46;22.80;99.90
2391;DHT22;22957;50.824;4.360;2023-09-19T12:05:12;22.90;99.90
2391;DHT22;22957;50.824;4.360;2023-09-19T12:07:44;23.10;99.90
2391;DHT22;22957;50.824;4.360;2023-09-19T12:10:13;22.80;99.90
2391;DHT22;22957;50.824;4.360;2023-09-19T12:12:39;23.10;99.90
2391;DHT22;22957;50.824;4.360;2023-09-19T12:15:06;23.00;99.90
2391;DHT22;22957;50.824;4.360;2023-09-19T12:17:38;22.90;99.90
2391;DHT22;22957;50.824;4.360;2023-09-19T12:20:08;22.90;99.90
2391;DHT22;22957;50.824;4.360;2023-09-19T12:22:45;21.90;99.90
2391;DHT22;22957;50.824;4.360;2023-09-19T12:25:12;21.90;99.90
2391;DHT22;22957;50.824;4.360;2023-09-19T12:28:10;22.50;99.90
2391;DHT22;22957;50.824;4.360;2023-09-19T12:30:29;22.40;99.90
2391;DHT22;22957;50.824;4.360;2023-09-19T12:32:58;22.40;99.90
2391;DHT22;22957;50.824;4.360;2023-09-19T12:35:31;22.70;99.90
2391;DHT22;22957;50.824;4.360;2023-09-19T12:38:00;22.40;99.90
2391;DHT22;22957;50.824;4.360;2023-09-19T12:40:26;22.30;99.90
2391;DHT22;22957;50.824;4.360;2023-09-19T12:42:56;22.40;99.90
2391;DHT22;22957;50.824;4.360;2023-09-19T12:45:23;22.60;99.90
2391;DHT22;22957;50.824;4.360;2023-09-19T12:50:33;23.10;99.90
2391;DHT22;22957;50.824;4.360;2023-09-19T12:52:58;22.80;99.90
2391;DHT22;22957;50.824;4.360;2023-09-19T12:55:29;23.10;99.90
2391;DHT22;22957;50.824;4.360;2023-09-19T13:00:31;23.00;99.90
2391;DHT22;22957;50.824;4.360;2023-09-19T13:06:02;22.60;99.90
2391;DHT22;22957;50.824;4.360;2023-09-19T13:13:35;22.20;99.90
2391;DHT22;22957;50.824;4.360;2023-09-19T13:16:02;22.40;99.90
2391;DHT22;22957;50.824;4.360;2023-09-19T13:18:27;22.70;99.90
2391;DHT22;22957;50.824;4.360;2023-09-19T13:21:06;22.80;99.90
2391;DHT22;22957;50.824;4.360;2023-09-19T13:23:33;22.60;99.90
2391;DHT22;22957;50.824;4.360;2023-09-19T13:25:58;23.10;99.90
2391;DHT22;22957;50.824;4.360;2023-09-19T13:28:24;23.00;99.90
2391;DHT22;22957;50.824;4.360;2023-09-19T13:30:50;23.00;99.90
2391;DHT22;22957;50.824;4.360;2023-09-19T13:33:15;23.10;99.90
2391;DHT22;22957;50.824;4.360;2023-09-19T13:35:46;23.20;99.90
2391;DHT22;22957;50.824;4.360;2023-09-19T13:38:13;23.50;99.90
2391;DHT22;22957;50.824;4.360;2023-09-19T13:40:39;23.70;99.90
2391;DHT22;22957;50.824;4.360;2023-09-19T13:43:07;23.20;99.90
2391;DHT22;22957;50.824;4.360;2023-09-19T13:45:33;23.40;99.90
2391;DHT22;22957;50.824;4.360;2023-09-19T13:47:59;23.30;99.90
2391;DHT22;22957;50.824;4.360;2023-09-19T13:50:24;23.20;99.90
2391;DHT22;22957;50.824;4.360;2023-09-19T13:52:51;23.20;99.90
2391;DHT22;22957;50.824;4.360;2023-09-19T13:55:18;23.60;99.90
2391;DHT22;22957;50.824;4.360;2023-09-19T13:57:48;22.90;99.90
2391;DHT22;22957;50.824;4.360;2023-09-19T14:00:21;23.20;99.90
2391;DHT22;22957;50.824;4.360;2023-09-19T14:02:48;23.50;99.90
2391;DHT22;22957;50.824;4.360;2023-09-19T14:05:14;23.20;99.90
2391;DHT22;22957;50.824;4.360;2023-09-19T14:07:42;22.90;99.90
2391;DHT22;22957;50.824;4.360;2023-09-19T14:10:08;22.60;99.90
2391;DHT22;22957;50.824;4.360;2023-09-19T14:12:33;22.90;99.90
2391;DHT22;22957;50.824;4.360;2023-09-19T14:15:00;22.80;99.90
2391;DHT22;22957;50.824;4.360;2023-09-19T14:17:25;22.30;99.90
2391;DHT22;22957;50.824;4.360;2023-09-19T14:19:52;22.50;99.90
2391;DHT22;22957;50.824;4.360;2023-09-19T14:22:17;22.80;99.90
2391;DHT22;22957;50.824;4.360;2023-09-19T14:24:43;23.00;99.90
2391;DHT22;22957;50.824;4.360;2023-09-19T14:27:09;22.90;99.90
2391;DHT22;22957;50.824;4.360;2023-09-19T14:29:34;22.90;99.90
2391;DHT22;22957;50.824;4.360;2023-09-19T14:32:00;23.10;99.90
2391;DHT22;22957;50.824;4.360;2023-09-19T14:34:25;23.30;99.90
2391;DHT22;22957;50.824;4.360;2023-09-19T14:36:51;23.70;99.90
2391;DHT22;22957;50.824;4.360;2023-09-19T14:39:16;23.30;99.90
2391;DHT22;22957;50.824;4.360;2023-09-19T14:41:42;22.80;99.90
2391;DHT22;22957;50.824;4.360;2023-09-19T14:44:07;23.10;99.90
2391;DHT22;22957;50.824;4.360;2023-09-19T14:46:35;22.70;99.90
2391;DHT22;22957;50.824;4.360;2023-09-19T14:49:00;22.80;99.90
2391;DHT22;22957;50.824;4.360;2023-09-19T14:51:29;22.60;99.90
2391;DHT22;22957;50.824;4.360;2023-09-19T14:53:54;22.70;99.90
2391;DHT22;22957;50.824;4.360;2023-09-19T14:56:20;22.90;99.90
2391;DHT22;22957;50.824;4.360;2023-09-19T14:58:46;22.90;99.90
2391;DHT22;22957;50.824;4.360;2023-09-19T15:01:13;22.80;99.90
2391;DHT22;22957;50.824;4.360;2023-09-19T15:03:39;22.90;99.90
2391;DHT22;22957;50.824;4.360;2023-09-19T15:06:06;22.80;99.90
2391;DHT22;22957;50.824;4.360;2023-09-19T15:08:32;22.50;99.90
2391;DHT22;22957;50.824;4.360;2023-09-19T15:10:59;22.70;99.90
2391;DHT22;22957;50.824;4.360;2023-09-19T15:13:29;22.60;99.90
2391;DHT22;22957;50.824;4.360;2023-09-19T15:15:59;22.40;99.90
2391;DHT22;22957;50.824;4.360;2023-09-19T15:18:24;22.40;99.90
2391;DHT22;22957;50.824;4.360;2023-09-19T15:20:50;22.50;99.90
2391;DHT22;22957;50.824;4.360;2023-09-19T15:23:16;22.50;99.90
2391;DHT22;22957;50.824;4.360;2023-09-19T15:25:50;21.90;99.90
2391;DHT22;22957;50.824;4.360;2023-09-19T15:28:16;21.80;99.90
2391;DHT22;22957;50.824;4.360;2023-09-19T15:30:41;22.30;99.90
2391;DHT22;22957;50.824;4.360;2023-09-19T15:33:07;21.70;99.90
2391;DHT22;22957;50.824;4.360;2023-09-19T15:35:32;21.80;99.90
2391;DHT22;22957;50.824;4.360;2023-09-19T15:37:58;21.60;99.90
2391;DHT22;22957;50.824;4.360;2023-09-19T15:40:26;21.70;99.90
2391;DHT22;22957;50.824;4.360;2023-09-19T15:42:53;21.70;99.90
2391;DHT22;22957;50.824;4.360;2023-09-19T15:45:19;21.70;99.90
2391;DHT22;22957;50.824;4.360;2023-09-19T15:47:45;21.80;99.90
2391;DHT22;22957;50.824;4.360;2023-09-19T15:50:10;21.30;99.90
2391;DHT22;22957;50.824;4.360;2023-09-19T15:52:39;21.30;99.90
2391;DHT22;22957;50.824;4.360;2023-09-19T15:55:05;21.50;99.90
2391;DHT22;22957;50.824;4.360;2023-09-19T15:57:31;21.20;99.90
2391;DHT22;22957;50.824;4.360;2023-09-19T15:59:57;21.40;99.90
2391;DHT22;22957;50.824;4.360;2023-09-19T16:02:23;21.30;99.90
2391;DHT22;22957;50.824;4.360;2023-09-19T16:04:48;21.80;99.90
2391;DHT22;22957;50.824;4.360;2023-09-19T16:07:14;21.60;99.90
2391;DHT22;22957;50.824;4.360;2023-09-19T16:09:40;21.90;99.90
2391;DHT22;22957;50.824;4.360;2023-09-19T16:12:07;21.60;99.90
2391;DHT22;22957;50.824;4.360;2023-09-19T16:14:34;21.60;99.90
2391;DHT22;22957;50.824;4.360;2023-09-19T16:17:00;21.20;99.90
2391;DHT22;22957;50.824;4.360;2023-09-19T16:19:27;21.20;99.90
2391;DHT22;22957;50.824;4.360;2023-09-19T16:21:53;21.50;99.90
2391;DHT22;22957;50.824;4.360;2023-09-19T16:24:18;21.70;99.90
2391;DHT22;22957;50.824;4.360;2023-09-19T16:26:44;21.60;99.90
2391;DHT22;22957;50.824;4.360;2023-09-19T16:29:10;21.70;99.90
2391;DHT22;22957;50.824;4.360;2023-09-19T16:31:36;21.30;99.90
2391;DHT22;22957;50.824;4.360;2023-09-19T16:34:02;21.50;99.90
2391;DHT22;22957;50.824;4.360;2023-09-19T16:36:28;21.60;99.90
2391;DHT22;22957;50.824;4.360;2023-09-19T16:38:53;21.60;99.90